Senhor do Bonfim, Brazil
Current Conditions -  °F | °C
As of 8:00 PM on Friday 19 Dec 2014 (Local Time) from SBPL Reporting Station
Light Rain Light Rain  
Wind Chill: 75°   Ceiling: 7000
Heat Index: 75°   Visibility: 5mi
Dew Point: 75°   Wind: 5mph
Humidity: 100%   Direction: 280°W
Pressure: 29.94"   Gusts: NA
Location:  10.45°S, 40.19°W
Report Text: SBPL 192300Z 28004KT 8000 -RA SCT007 SCT025 OVC070 24/24 Q1014
Loading
Personal Weather Stations






























Interactive Weather Map New forecast layout! Learn more

10-Day Weather Forecast

Advertisements
Track Severe Weather on mobile